Time;durP1;ratioP1;P1;durP2;ratioP2;P2;SDS_P1;SDS_P2;PMS_P1;PMS_P2;Temp;Humidity;BMP_temperature;BMP_pressure;BME280_temperature;BME280_humidity;BME280_pressure;Samples;Min_cycle;Max_cycle;Signal;HPM_P1;HPM_P2
2020/12/05 00:00:06;;;;;;;20.33;14.00;;;;;;;;;;5095990;28;20024;-71
2020/12/05 00:02:31;;;;;;;11.20;9.70;;;;;;;;;;5095564;28;20031;-71
2020/12/05 00:04:56;;;;;;;16.05;11.02;;;;;;;;;;5095600;28;20016;-70
2020/12/05 00:07:21;;;;;;;15.52;13.63;;;;;;;;;;5095526;28;20047;-71
2020/12/05 00:09:46;;;;;;;17.40;13.43;;;;;;;;;;5095429;28;20020;-71
2020/12/05 00:12:12;;;;;;;16.00;13.55;;;;;;;;;;5094902;28;20495;-70
2020/12/05 00:14:37;;;;;;;16.48;12.77;;;;;;;;;;5095497;28;20044;-70
2020/12/05 00:17:02;;;;;;;18.83;13.25;;;;;;;;;;5095573;28;20019;-70
2020/12/05 00:19:28;;;;;;;14.88;10.93;;;;;;;;;;5095404;28;20092;-70
2020/12/05 00:21:54;;;;;;;12.45;8.48;;;;;;;;;;5095552;28;20112;-71
2020/12/05 00:24:19;;;;;;;11.25;8.30;;;;;;;;;;5095510;28;20080;-69
2020/12/05 00:26:46;;;;;;;11.93;8.07;;;;;;;;;;5095380;28;20077;-70
2020/12/05 00:29:11;;;;;;;10.77;7.72;;;;;;;;;;5095062;28;20278;-70
2020/12/05 00:31:36;;;;;;;8.67;7.27;;;;;;;;;;5095279;28;20039;-69
2020/12/05 00:34:02;;;;;;;10.15;8.02;;;;;;;;;;5096130;28;20242;-70
2020/12/05 00:36:27;;;;;;;9.30;7.60;;;;;;;;;;5095425;28;20099;-70
2020/12/05 00:38:54;;;;;;;9.53;6.73;;;;;;;;;;5095225;28;20278;-71
2020/12/05 00:41:19;;;;;;;7.97;7.07;;;;;;;;;;5094985;28;20330;-70
2020/12/05 00:43:44;;;;;;;10.32;7.45;;;;;;;;;;5095260;28;20154;-71
2020/12/05 00:46:10;;;;;;;8.82;7.78;;;;;;;;;;5094736;28;20027;-70
2020/12/05 00:48:35;;;;;;;14.25;7.82;;;;;;;;;;5095268;28;20134;-71
2020/12/05 00:51:00;;;;;;;8.87;7.60;;;;;;;;;;5095382;28;20028;-71
2020/12/05 00:53:25;;;;;;;8.77;7.63;;;;;;;;;;5095091;28;20269;-71
2020/12/05 00:55:50;;;;;;;11.37;8.80;;;;;;;;;;5094918;28;20465;-71
2020/12/05 00:58:15;;;;;;;13.27;8.98;;;;;;;;;;5094719;28;20242;-69
2020/12/05 01:00:41;;;;;;;14.88;12.32;;;;;;;;;;5095422;28;20074;-70
2020/12/05 01:03:06;;;;;;;12.65;11.10;;;;;;;;;;5094392;28;20042;-71
2020/12/05 01:05:32;;;;;;;12.00;10.32;;;;;;;;;;5094912;28;20032;-74
2020/12/05 01:07:58;;;;;;;12.32;10.23;;;;;;;;;;5073153;28;20094;-75
2020/12/05 01:10:23;;;;;;;12.63;10.00;;;;;;;;;;5064145;28;20021;-80
2020/12/05 01:12:48;;;;;;;9.02;7.50;;;;;;;;;;5053951;28;20051;-69
2020/12/05 01:15:13;;;;;;;10.30;7.57;;;;;;;;;;5054352;28;20028;-69
2020/12/05 01:17:39;;;;;;;8.52;7.43;;;;;;;;;;5053997;28;20021;-70
2020/12/05 01:20:05;;;;;;;8.93;7.97;;;;;;;;;;5053013;28;20021;-68
2020/12/05 01:22:30;;;;;;;7.80;7.00;;;;;;;;;;5054201;28;20021;-70
2020/12/05 01:24:55;;;;;;;9.17;7.57;;;;;;;;;;5054170;28;20025;-69
2020/12/05 01:27:20;;;;;;;9.80;8.05;;;;;;;;;;5053071;28;20366;-70
2020/12/05 01:29:46;;;;;;;12.95;9.70;;;;;;;;;;5053922;28;20048;-68
2020/12/05 01:32:11;;;;;;;11.07;9.40;;;;;;;;;;5053691;28;20371;-69
2020/12/05 01:34:37;;;;;;;10.77;8.13;;;;;;;;;;5054089;28;20263;-68
2020/12/05 01:37:02;;;;;;;11.07;8.90;;;;;;;;;;5053723;28;20031;-68
2020/12/05 01:39:27;;;;;;;10.50;8.68;;;;;;;;;;5053757;28;20031;-66
2020/12/05 01:41:52;;;;;;;9.90;8.85;;;;;;;;;;5053638;28;20028;-68
2020/12/05 01:44:17;;;;;;;10.43;9.20;;;;;;;;;;5053951;28;20033;-66
2020/12/05 01:46:43;;;;;;;12.00;9.43;;;;;;;;;;5053640;28;20025;-68
2020/12/05 01:49:11;;;;;;;11.32;9.43;;;;;;;;;;5053006;28;20021;-67
2020/12/05 01:51:37;;;;;;;10.85;9.50;;;;;;;;;;5053534;28;20379;-69
2020/12/05 01:54:02;;;;;;;10.88;9.23;;;;;;;;;;5053530;28;20031;-69
2020/12/05 01:56:28;;;;;;;11.23;10.02;;;;;;;;;;5053610;28;20021;-66
2020/12/05 01:58:53;;;;;;;12.20;10.90;;;;;;;;;;5054029;28;20466;-70
2020/12/05 02:01:23;;;;;;;13.32;10.07;;;;;;;;;;5053608;28;20021;-68
2020/12/05 02:03:55;;;;;;;10.40;9.20;;;;;;;;;;5053440;28;20053;-70
2020/12/05 02:06:29;;;;;;;11.30;9.32;;;;;;;;;;5053385;28;20091;-67
2020/12/05 02:09:08;;;;;;;11.52;9.40;;;;;;;;;;5053419;28;20024;-67
2020/12/05 02:11:36;;;;;;;10.23;9.05;;;;;;;;;;5053128;28;20032;-69
2020/12/05 02:14:05;;;;;;;10.63;8.85;;;;;;;;;;5053642;28;20504;-66
2020/12/05 02:16:30;;;;;;;10.80;8.63;;;;;;;;;;5053515;28;20029;-66
2020/12/05 02:18:56;;;;;;;10.00;8.85;;;;;;;;;;5051976;28;20144;-65
2020/12/05 02:21:23;;;;;;;10.07;8.90;;;;;;;;;;5052862;28;20021;-67
2020/12/05 02:23:49;;;;;;;11.18;9.02;;;;;;;;;;5053209;28;20016;-66
2020/12/05 02:26:15;;;;;;;9.98;8.85;;;;;;;;;;5052956;28;20072;-69
2020/12/05 02:28:40;;;;;;;9.68;8.65;;;;;;;;;;5052819;28;20013;-66
2020/12/05 02:31:06;;;;;;;9.67;8.67;;;;;;;;;;5053047;28;20056;-66
2020/12/05 02:33:31;;;;;;;10.73;8.93;;;;;;;;;;5053249;28;20324;-66
2020/12/05 02:35:57;;;;;;;11.98;10.40;;;;;;;;;;5053051;28;20118;-67
2020/12/05 02:38:31;;;;;;;11.95;10.32;;;;;;;;;;5054407;28;20086;-68
2020/12/05 02:40:57;;;;;;;14.43;9.93;;;;;;;;;;5053047;28;20024;-66
2020/12/05 02:43:23;;;;;;;15.23;11.20;;;;;;;;;;5052133;28;20304;-68
2020/12/05 02:45:48;;;;;;;15.40;11.10;;;;;;;;;;5052525;28;20100;-65
2020/12/05 02:48:13;;;;;;;11.40;10.20;;;;;;;;;;5052419;28;20099;-69
2020/12/05 02:50:39;;;;;;;10.90;9.68;;;;;;;;;;5052439;28;20279;-67
2020/12/05 02:53:04;;;;;;;11.07;9.85;;;;;;;;;;5052174;28;20088;-68
2020/12/05 02:55:29;;;;;;;12.00;10.13;;;;;;;;;;5052180;28;20021;-68
2020/12/05 02:57:54;;;;;;;11.32;9.98;;;;;;;;;;5052510;28;20033;-66
2020/12/05 03:00:20;;;;;;;11.43;10.30;;;;;;;;;;5054655;28;20447;-69
2020/12/05 03:02:45;;;;;;;12.68;9.70;;;;;;;;;;5056916;28;20099;-66
2020/12/05 03:05:10;;;;;;;12.73;11.25;;;;;;;;;;5055776;28;20025;-67
2020/12/05 03:07:36;;;;;;;11.30;10.13;;;;;;;;;;5056328;28;20071;-66
2020/12/05 03:10:01;;;;;;;10.70;9.40;;;;;;;;;;5056574;28;20283;-66
2020/12/05 03:12:26;;;;;;;11.93;10.70;;;;;;;;;;5056243;28;20358;-68
2020/12/05 03:14:51;;;;;;;12.60;11.00;;;;;;;;;;5056557;28;20390;-67
2020/12/05 03:17:16;;;;;;;11.38;10.18;;;;;;;;;;5056689;28;20051;-69
2020/12/05 03:19:41;;;;;;;11.63;10.43;;;;;;;;;;5055127;28;20043;-69
2020/12/05 03:22:07;;;;;;;14.05;10.90;;;;;;;;;;5056020;28;20796;-66
2020/12/05 03:24:32;;;;;;;12.45;10.77;;;;;;;;;;5056538;28;20056;-68
2020/12/05 03:26:57;;;;;;;15.32;12.75;;;;;;;;;;5056155;28;20421;-66
2020/12/05 03:29:22;;;;;;;15.53;12.70;;;;;;;;;;5056249;28;20467;-66
2020/12/05 03:31:51;;;;;;;15.18;13.60;;;;;;;;;;5056075;28;20279;-68
2020/12/05 03:34:17;;;;;;;18.17;14.57;;;;;;;;;;5056170;28;20373;-66
2020/12/05 03:36:43;;;;;;;18.38;14.65;;;;;;;;;;5056122;28;20017;-67
2020/12/05 03:39:09;;;;;;;15.45;13.75;;;;;;;;;;5056118;28;20028;-67
2020/12/05 03:41:34;;;;;;;15.60;13.15;;;;;;;;;;5055712;28;20029;-68
2020/12/05 03:43:59;;;;;;;14.57;13.00;;;;;;;;;;5055881;28;20459;-68
2020/12/05 03:46:24;;;;;;;16.87;13.43;;;;;;;;;;5055937;28;20021;-70
2020/12/05 03:48:49;;;;;;;14.57;12.27;;;;;;;;;;5055845;28;20254;-69
2020/12/05 03:51:14;;;;;;;13.33;11.93;;;;;;;;;;5055846;28;20247;-69
2020/12/05 03:53:39;;;;;;;16.07;14.37;;;;;;;;;;5055676;28;20669;-67
2020/12/05 03:56:05;;;;;;;18.40;13.80;;;;;;;;;;5055328;28;20263;-69
2020/12/05 03:58:30;;;;;;;14.73;13.17;;;;;;;;;;5055463;28;20740;-70
2020/12/05 04:00:55;;;;;;;17.20;13.40;;;;;;;;;;5055265;28;20247;-70
2020/12/05 04:03:20;;;;;;;15.70;13.83;;;;;;;;;;5055156;28;20025;-66
2020/12/05 04:05:45;;;;;;;15.30;13.70;;;;;;;;;;5055445;28;20259;-70
2020/12/05 04:08:11;;;;;;;14.18;12.35;;;;;;;;;;5055525;28;20063;-67
2020/12/05 04:10:36;;;;;;;16.88;14.40;;;;;;;;;;5055475;28;20059;-67
2020/12/05 04:13:01;;;;;;;18.88;15.05;;;;;;;;;;5054517;28;20497;-70
2020/12/05 04:15:26;;;;;;;16.95;13.93;;;;;;;;;;5055292;28;20117;-69
2020/12/05 04:17:51;;;;;;;20.55;17.40;;;;;;;;;;5055336;28;20013;-68
2020/12/05 04:20:16;;;;;;;23.25;19.75;;;;;;;;;;5055739;28;20049;-67
2020/12/05 04:22:42;;;;;;;29.37;23.83;;;;;;;;;;5055600;28;20159;-69
2020/12/05 04:25:07;;;;;;;27.60;22.70;;;;;;;;;;5055731;28;20683;-71
2020/12/05 04:27:32;;;;;;;25.23;22.17;;;;;;;;;;5055438;28;20278;-67
2020/12/05 04:29:57;;;;;;;25.47;22.80;;;;;;;;;;5055399;28;20362;-68
2020/12/05 04:32:22;;;;;;;27.33;23.85;;;;;;;;;;5054804;28;20271;-65
2020/12/05 04:34:47;;;;;;;28.37;22.60;;;;;;;;;;5055168;28;20024;-68
2020/12/05 04:37:13;;;;;;;26.45;23.58;;;;;;;;;;5054831;28;20317;-68
2020/12/05 04:39:38;;;;;;;30.75;23.35;;;;;;;;;;5054865;28;20085;-67
2020/12/05 04:42:03;;;;;;;27.27;23.17;;;;;;;;;;5054404;28;20390;-68
2020/12/05 04:44:29;;;;;;;26.10;23.35;;;;;;;;;;5054790;28;20025;-70
2020/12/05 04:46:54;;;;;;;26.98;24.00;;;;;;;;;;5054535;28;20126;-69
2020/12/05 04:49:21;;;;;;;27.47;24.50;;;;;;;;;;5054358;28;20037;-65
2020/12/05 04:51:51;;;;;;;27.05;24.30;;;;;;;;;;5054033;28;20291;-67
2020/12/05 04:54:23;;;;;;;26.35;23.15;;;;;;;;;;5054442;28;20067;-65
2020/12/05 04:56:52;;;;;;;30.17;26.70;;;;;;;;;;5054541;28;20028;-65
2020/12/05 04:59:17;;;;;;;29.75;26.65;;;;;;;;;;5054643;28;20474;-68
2020/12/05 05:01:42;;;;;;;28.83;25.75;;;;;;;;;;5054377;28;20036;-67
2020/12/05 05:04:07;;;;;;;28.75;25.05;;;;;;;;;;5054560;28;20399;-67
2020/12/05 05:06:33;;;;;;;30.80;26.15;;;;;;;;;;5054541;28;20082;-67
2020/12/05 05:08:58;;;;;;;32.50;26.75;;;;;;;;;;5054180;28;20173;-67
2020/12/05 05:11:27;;;;;;;29.77;26.50;;;;;;;;;;5053935;28;20107;-69
2020/12/05 05:14:02;;;;;;;32.25;27.27;;;;;;;;;;5054283;28;20020;-68
2020/12/05 05:16:28;;;;;;;33.78;27.17;;;;;;;;;;5052951;28;20021;-67
2020/12/05 05:18:54;;;;;;;31.42;27.30;;;;;;;;;;5054132;28;20068;-68
2020/12/05 05:21:36;;;;;;;33.50;28.95;;;;;;;;;;5053874;28;20052;-69
2020/12/05 05:24:09;;;;;;;34.55;29.23;;;;;;;;;;5053178;28;20461;-67
2020/12/05 05:26:34;;;;;;;33.53;28.98;;;;;;;;;;5054314;28;20028;-67
2020/12/05 05:28:59;;;;;;;39.07;30.37;;;;;;;;;;5054220;28;20017;-69
2020/12/05 05:31:41;;;;;;;40.43;31.80;;;;;;;;;;5054076;28;20252;-66
2020/12/05 05:34:07;;;;;;;39.58;31.75;;;;;;;;;;5054226;28;20605;-69
2020/12/05 05:36:32;;;;;;;37.30;31.33;;;;;;;;;;5054090;28;20032;-70
2020/12/05 05:38:57;;;;;;;36.60;30.53;;;;;;;;;;5053881;28;20251;-69
2020/12/05 05:41:22;;;;;;;41.78;33.47;;;;;;;;;;5053542;28;20257;-68
2020/12/05 05:43:52;;;;;;;43.00;32.35;;;;;;;;;;5053853;28;20017;-68
2020/12/05 05:46:21;;;;;;;40.28;31.17;;;;;;;;;;5053740;28;20081;-70
2020/12/05 05:48:50;;;;;;;38.30;31.85;;;;;;;;;;5053811;28;20041;-69
2020/12/05 05:51:15;;;;;;;41.38;33.35;;;;;;;;;;5053637;28;20017;-68
2020/12/05 05:53:40;;;;;;;37.50;31.23;;;;;;;;;;5053585;28;20021;-70
2020/12/05 05:56:06;;;;;;;43.05;33.80;;;;;;;;;;5053695;28;20048;-68
2020/12/05 05:58:31;;;;;;;41.53;32.57;;;;;;;;;;5053366;28;20033;-68
2020/12/05 06:00:57;;;;;;;42.07;33.17;;;;;;;;;;5053195;28;20673;-70
2020/12/05 06:03:27;;;;;;;41.67;32.75;;;;;;;;;;5053112;28;20259;-68
2020/12/05 06:05:52;;;;;;;44.05;32.75;;;;;;;;;;5054017;28;20029;-70
2020/12/05 06:08:25;;;;;;;37.60;33.40;;;;;;;;;;5054642;28;20037;-68
2020/12/05 06:10:55;;;;;;;39.83;32.72;;;;;;;;;;5053293;28;20025;-67
2020/12/05 06:13:23;;;;;;;40.03;33.83;;;;;;;;;;5052624;28;20247;-69
2020/12/05 06:15:49;;;;;;;43.45;34.13;;;;;;;;;;5053199;28;20095;-68
2020/12/05 06:18:14;;;;;;;41.35;30.17;;;;;;;;;;5053169;28;20025;-66
2020/12/05 06:20:42;;;;;;;35.53;29.75;;;;;;;;;;5053200;28;20040;-71
2020/12/05 06:23:10;;;;;;;33.15;28.75;;;;;;;;;;5052911;28;20374;-71
2020/12/05 06:25:37;;;;;;;33.33;27.42;;;;;;;;;;5053088;28;20017;-68
2020/12/05 06:28:03;;;;;;;33.92;29.38;;;;;;;;;;5053318;28;20082;-70
2020/12/05 06:30:29;;;;;;;35.42;29.25;;;;;;;;;;5052871;28;20021;-72
2020/12/05 06:32:55;;;;;;;34.38;27.92;;;;;;;;;;5052414;28;20017;-68
2020/12/05 06:35:23;;;;;;;35.95;28.42;;;;;;;;;;5052769;28;20454;-68
2020/12/05 06:37:52;;;;;;;33.33;26.60;;;;;;;;;;5052859;28;20112;-66
2020/12/05 06:40:18;;;;;;;32.60;26.67;;;;;;;;;;5054618;28;20033;-69
2020/12/05 06:42:47;;;;;;;34.72;27.67;;;;;;;;;;5052619;28;20021;-65
2020/12/05 06:45:24;;;;;;;31.80;25.55;;;;;;;;;;5052965;28;20082;-68
2020/12/05 06:47:50;;;;;;;31.67;26.05;;;;;;;;;;5070301;28;20012;-66
2020/12/05 06:50:31;;;;;;;29.35;26.23;;;;;;;;;;5081370;28;20025;-66
2020/12/05 06:52:56;;;;;;;28.67;24.52;;;;;;;;;;5086772;28;20020;-70
2020/12/05 06:55:30;;;;;;;30.42;23.52;;;;;;;;;;5066425;28;20078;-67
2020/12/05 06:58:03;;;;;;;25.73;21.95;;;;;;;;;;5080912;28;20074;-68
2020/12/05 07:00:32;;;;;;;25.10;21.27;;;;;;;;;;5079559;28;20021;-68
2020/12/05 07:03:01;;;;;;;23.80;21.30;;;;;;;;;;5089101;28;20027;-69
2020/12/05 07:05:35;;;;;;;23.50;20.90;;;;;;;;;;5071805;28;20051;-69
2020/12/05 07:08:01;;;;;;;24.23;20.77;;;;;;;;;;5080934;28;20036;-70
2020/12/05 07:11:00;;;;;;;22.45;19.90;;;;;;;;;;5079078;28;20493;-70
2020/12/05 07:13:27;;;;;;;22.55;19.38;;;;;;;;;;5051239;28;20169;-73
2020/12/05 07:16:06;;;;;;;23.60;20.42;;;;;;;;;;5091645;28;20065;-71
2020/12/05 07:18:32;;;;;;;26.77;21.60;;;;;;;;;;5092489;28;20027;-71
2020/12/05 07:20:57;;;;;;;29.43;24.30;;;;;;;;;;5092943;28;20027;-69
2020/12/05 07:23:22;;;;;;;29.35;24.13;;;;;;;;;;5092439;28;20711;-71
2020/12/05 07:25:48;;;;;;;29.45;24.85;;;;;;;;;;5092690;28;20054;-72
2020/12/05 07:28:13;;;;;;;31.13;25.50;;;;;;;;;;5092939;28;20043;-73
2020/12/05 07:30:38;;;;;;;31.85;25.48;;;;;;;;;;5092639;28;20025;-73
2020/12/05 07:33:07;;;;;;;30.00;24.92;;;;;;;;;;5092556;28;20018;-74
2020/12/05 07:35:32;;;;;;;26.60;23.25;;;;;;;;;;5092462;28;20065;-73
2020/12/05 07:37:57;;;;;;;33.25;25.70;;;;;;;;;;5092338;28;20161;-73
2020/12/05 07:40:29;;;;;;;29.75;24.67;;;;;;;;;;5092113;28;20441;-70
2020/12/05 07:42:54;;;;;;;29.30;23.48;;;;;;;;;;5091888;28;20535;-73
2020/12/05 07:45:20;;;;;;;23.85;20.55;;;;;;;;;;5092053;28;20059;-74
2020/12/05 07:47:45;;;;;;;25.00;21.33;;;;;;;;;;5093148;28;20191;-73
2020/12/05 07:50:10;;;;;;;24.52;20.83;;;;;;;;;;5095948;28;20032;-69
2020/12/05 07:52:41;;;;;;;26.70;20.13;;;;;;;;;;5095796;28;20008;-73
2020/12/05 07:55:07;;;;;;;26.85;21.02;;;;;;;;;;5096003;28;20027;-74
2020/12/05 07:57:34;;;;;;;25.65;20.30;;;;;;;;;;5094465;28;20099;-75
2020/12/05 08:00:20;;;;;;;22.00;18.50;;;;;;;;;;5072573;28;20438;-74
2020/12/05 08:02:54;;;;;;;23.03;18.73;;;;;;;;;;5063431;28;20032;-74
2020/12/05 08:05:19;;;;;;;20.65;17.70;;;;;;;;;;5065545;28;20629;-73
2020/12/05 08:07:46;;;;;;;19.65;17.10;;;;;;;;;;5058061;28;20033;-73
2020/12/05 08:10:12;;;;;;;23.35;17.05;;;;;;;;;;5070338;28;20415;-71
2020/12/05 08:12:43;;;;;;;21.90;16.73;;;;;;;;;;5075686;28;20020;-69
2020/12/05 08:15:10;;;;;;;15.82;14.13;;;;;;;;;;5075805;28;20039;-68
2020/12/05 08:17:36;;;;;;;14.43;12.50;;;;;;;;;;5075958;28;20143;-69
2020/12/05 08:20:03;;;;;;;13.63;11.18;;;;;;;;;;5075785;28;20323;-70
2020/12/05 08:22:30;;;;;;;9.80;8.50;;;;;;;;;;5067761;28;20426;-70
2020/12/05 08:24:56;;;;;;;8.80;7.63;;;;;;;;;;5067476;28;20055;-69
2020/12/05 08:27:21;;;;;;;8.13;7.30;;;;;;;;;;5055512;28;20063;-71
2020/12/05 08:29:47;;;;;;;7.63;6.30;;;;;;;;;;5054971;28;20020;-69
2020/12/05 08:32:31;;;;;;;7.43;6.47;;;;;;;;;;5054847;28;20059;-69
2020/12/05 08:35:06;;;;;;;6.53;5.38;;;;;;;;;;5055116;28;20142;-71
2020/12/05 08:37:32;;;;;;;6.85;5.68;;;;;;;;;;5054919;28;20060;-73
2020/12/05 08:39:58;;;;;;;6.00;5.40;;;;;;;;;;5054983;28;20024;-71
2020/12/05 08:42:23;;;;;;;7.50;5.15;;;;;;;;;;5054325;28;20033;-70
2020/12/05 08:44:48;;;;;;;5.80;4.82;;;;;;;;;;5054837;28;20016;-70
2020/12/05 08:47:13;;;;;;;5.20;4.63;;;;;;;;;;5054970;28;20521;-72
2020/12/05 08:49:40;;;;;;;6.33;5.30;;;;;;;;;;5054582;28;20021;-69
2020/12/05 08:52:06;;;;;;;5.65;4.25;;;;;;;;;;5056610;28;20493;-70
2020/12/05 08:54:41;;;;;;;4.00;3.60;;;;;;;;;;5073469;28;20020;-67
2020/12/05 08:57:07;;;;;;;4.00;3.38;;;;;;;;;;5074192;28;20019;-69
2020/12/05 08:59:32;;;;;;;3.17;2.70;;;;;;;;;;5072650;28;20326;-67
2020/12/05 09:01:58;;;;;;;3.05;2.08;;;;;;;;;;5073732;28;20020;-66
2020/12/05 09:04:27;;;;;;;2.58;2.38;;;;;;;;;;5074047;28;20099;-67
2020/12/05 09:06:52;;;;;;;2.88;1.73;;;;;;;;;;5073927;28;20029;-71
2020/12/05 09:09:27;;;;;;;2.23;1.90;;;;;;;;;;5073540;28;20023;-71
2020/12/05 09:12:09;;;;;;;2.05;1.60;;;;;;;;;;5086414;28;20250;-68
2020/12/05 09:14:35;;;;;;;2.45;1.38;;;;;;;;;;5070099;28;20401;-68
2020/12/05 09:17:00;;;;;;;3.13;1.67;;;;;;;;;;5073940;28;20017;-70
2020/12/05 09:19:27;;;;;;;1.27;1.17;;;;;;;;;;5084805;28;20027;-67
2020/12/05 09:21:53;;;;;;;1.55;1.30;;;;;;;;;;5079841;28;20435;-71
2020/12/05 09:24:18;;;;;;;1.50;1.40;;;;;;;;;;5090099;28;20023;-68
2020/12/05 09:26:50;;;;;;;1.30;1.20;;;;;;;;;;5072714;28;20024;-71
2020/12/05 09:29:15;;;;;;;1.58;1.10;;;;;;;;;;5073475;28;20724;-67
2020/12/05 09:31:47;;;;;;;2.27;1.10;;;;;;;;;;5073330;28;20070;-68
2020/12/05 09:34:13;;;;;;;3.90;1.50;;;;;;;;;;5073571;28;20283;-67
2020/12/05 09:36:38;;;;;;;1.13;1.03;;;;;;;;;;5073222;28;20047;-67
2020/12/05 09:39:03;;;;;;;1.83;1.17;;;;;;;;;;5073548;28;20719;-67
2020/12/05 09:41:33;;;;;;;1.00;0.90;;;;;;;;;;5072945;28;20023;-68
2020/12/05 09:43:58;;;;;;;1.02;0.75;;;;;;;;;;5073285;28;20724;-68
2020/12/05 09:46:23;;;;;;;1.20;0.90;;;;;;;;;;5073216;28;20107;-68
2020/12/05 09:48:48;;;;;;;1.40;1.10;;;;;;;;;;5071674;28;20629;-67
2020/12/05 09:51:13;;;;;;;2.07;1.00;;;;;;;;;;5073144;28;20035;-66
2020/12/05 09:53:39;;;;;;;1.03;0.93;;;;;;;;;;5073208;28;20322;-68
2020/12/05 09:56:04;;;;;;;0.93;0.80;;;;;;;;;;5073464;28;20254;-67
2020/12/05 09:58:29;;;;;;;0.90;0.90;;;;;;;;;;5073335;28;20404;-68
2020/12/05 10:00:54;;;;;;;1.67;1.20;;;;;;;;;;5072131;28;20270;-69
2020/12/05 10:03:19;;;;;;;1.77;1.10;;;;;;;;;;5072663;28;20039;-73
2020/12/05 10:05:44;;;;;;;1.30;1.20;;;;;;;;;;5072664;28;20293;-72
2020/12/05 10:08:10;;;;;;;1.13;0.90;;;;;;;;;;5062709;28;20272;-67
2020/12/05 10:10:35;;;;;;;1.37;1.00;;;;;;;;;;5049372;28;20322;-68
2020/12/05 10:13:00;;;;;;;1.23;1.03;;;;;;;;;;5050347;28;20259;-67
2020/12/05 10:15:25;;;;;;;1.97;1.10;;;;;;;;;;5050500;28;20313;-68
2020/12/05 10:17:51;;;;;;;1.20;1.10;;;;;;;;;;5050417;28;20278;-67
2020/12/05 10:20:16;;;;;;;1.63;1.20;;;;;;;;;;5050384;28;20087;-68
2020/12/05 10:22:41;;;;;;;2.63;1.80;;;;;;;;;;5050339;28;20029;-68
2020/12/05 10:25:06;;;;;;;2.07;1.50;;;;;;;;;;5051444;28;20494;-68
2020/12/05 10:27:31;;;;;;;2.60;1.70;;;;;;;;;;5052286;28;20263;-69
2020/12/05 10:29:57;;;;;;;1.40;1.30;;;;;;;;;;5052510;28;20021;-67
2020/12/05 10:32:22;;;;;;;3.17;1.38;;;;;;;;;;5052286;28;20020;-70
2020/12/05 10:34:47;;;;;;;1.80;1.27;;;;;;;;;;5052555;28;20088;-68
2020/12/05 10:37:12;;;;;;;1.33;1.23;;;;;;;;;;5052385;28;20260;-68
2020/12/05 10:39:38;;;;;;;1.83;1.48;;;;;;;;;;5052182;28;20474;-69
2020/12/05 10:42:03;;;;;;;1.55;1.25;;;;;;;;;;5051994;28;20029;-69
2020/12/05 10:44:28;;;;;;;1.50;1.40;;;;;;;;;;5052303;28;20058;-71
2020/12/05 10:46:53;;;;;;;2.47;1.23;;;;;;;;;;5061193;28;20025;-71
2020/12/05 10:49:19;;;;;;;1.55;1.45;;;;;;;;;;5055893;28;20031;-68
2020/12/05 10:51:46;;;;;;;3.08;1.50;;;;;;;;;;5067608;28;20098;-71
2020/12/05 10:54:11;;;;;;;1.85;1.40;;;;;;;;;;5058281;28;20022;-70
2020/12/05 10:56:38;;;;;;;1.30;1.20;;;;;;;;;;5057843;28;20017;-70
2020/12/05 10:59:03;;;;;;;1.40;1.30;;;;;;;;;;5052179;28;20102;-71
2020/12/05 11:01:28;;;;;;;1.55;1.15;;;;;;;;;;5051458;28;20017;-71
2020/12/05 11:03:53;;;;;;;1.13;1.02;;;;;;;;;;5051943;28;20494;-70
2020/12/05 11:06:22;;;;;;;1.60;1.33;;;;;;;;;;5051978;28;20462;-72
2020/12/05 11:08:48;;;;;;;2.15;1.10;;;;;;;;;;5051984;28;20259;-71
2020/12/05 11:11:13;;;;;;;0.90;0.90;;;;;;;;;;5051629;28;20028;-70
2020/12/05 11:13:38;;;;;;;2.33;1.20;;;;;;;;;;5051688;28;20017;-69
2020/12/05 11:16:03;;;;;;;1.77;1.08;;;;;;;;;;5051936;28;20020;-69
2020/12/05 11:18:28;;;;;;;1.50;1.20;;;;;;;;;;5051952;28;20009;-69
2020/12/05 11:20:54;;;;;;;2.67;1.47;;;;;;;;;;5051740;28;20017;-67
2020/12/05 11:23:19;;;;;;;2.00;1.43;;;;;;;;;;5055022;28;20737;-69
2020/12/05 11:25:44;;;;;;;2.60;1.45;;;;;;;;;;5055746;28;20251;-67
2020/12/05 11:28:09;;;;;;;1.40;1.30;;;;;;;;;;5055783;28;20302;-69
2020/12/05 11:30:34;;;;;;;1.30;1.20;;;;;;;;;;5056132;28;20291;-68
2020/12/05 11:33:00;;;;;;;2.00;1.30;;;;;;;;;;5055628;28;20744;-68
2020/12/05 11:35:25;;;;;;;1.58;1.30;;;;;;;;;;5055657;28;20341;-68
2020/12/05 11:37:53;;;;;;;2.33;1.53;;;;;;;;;;5053847;28;20013;-69
2020/12/05 11:40:18;;;;;;;2.05;1.58;;;;;;;;;;5053965;28;20259;-68
2020/12/05 11:42:43;;;;;;;1.77;1.40;;;;;;;;;;5053501;28;20021;-68
2020/12/05 11:45:08;;;;;;;2.83;1.40;;;;;;;;;;5052279;28;20398;-67
2020/12/05 11:47:33;;;;;;;3.10;1.48;;;;;;;;;;5053542;28;20386;-68
2020/12/05 11:49:59;;;;;;;2.78;1.48;;;;;;;;;;5053661;28;20032;-67
2020/12/05 11:52:24;;;;;;;1.67;1.25;;;;;;;;;;5054594;28;20067;-67
2020/12/05 11:54:49;;;;;;;2.00;1.80;;;;;;;;;;5055904;28;20021;-68
2020/12/05 11:57:14;;;;;;;2.30;1.53;;;;;;;;;;5055426;28;20713;-68
2020/12/05 11:59:40;;;;;;;2.15;1.38;;;;;;;;;;5054783;28;20342;-69
2020/12/05 12:02:05;;;;;;;3.75;1.33;;;;;;;;;;5054842;28;20021;-68
2020/12/05 12:04:31;;;;;;;1.73;1.20;;;;;;;;;;5055034;28;20021;-68
2020/12/05 12:06:56;;;;;;;1.70;1.50;;;;;;;;;;5054963;28;20443;-68
2020/12/05 12:09:21;;;;;;;2.63;1.30;;;;;;;;;;5054945;28;20251;-69
2020/12/05 12:11:46;;;;;;;1.47;1.20;;;;;;;;;;5054675;28;20032;-68
2020/12/05 12:14:11;;;;;;;1.27;1.10;;;;;;;;;;5054944;28;20352;-69
2020/12/05 12:16:37;;;;;;;1.98;1.20;;;;;;;;;;5054939;28;20071;-69
2020/12/05 12:19:02;;;;;;;1.52;1.23;;;;;;;;;;5054361;28;20152;-68
2020/12/05 12:21:27;;;;;;;1.30;1.13;;;;;;;;;;5054605;28;20336;-68
2020/12/05 12:23:52;;;;;;;1.52;1.02;;;;;;;;;;5054786;28;20267;-68
2020/12/05 12:26:18;;;;;;;1.52;1.10;;;;;;;;;;5076155;28;20024;-69
2020/12/05 12:28:43;;;;;;;3.47;1.10;;;;;;;;;;5085734;28;20025;-68
2020/12/05 12:31:08;;;;;;;1.42;1.33;;;;;;;;;;5064912;28;20025;-68
2020/12/05 12:33:34;;;;;;;1.53;1.10;;;;;;;;;;5064714;28;20040;-67
2020/12/05 12:35:59;;;;;;;1.88;0.90;;;;;;;;;;5061716;28;20251;-68
2020/12/05 12:38:24;;;;;;;3.43;2.13;;;;;;;;;;5071722;28;20078;-67
2020/12/05 12:40:49;;;;;;;1.60;1.37;;;;;;;;;;5065384;28;20339;-67
2020/12/05 12:43:15;;;;;;;2.33;1.30;;;;;;;;;;5068701;28;20263;-67
2020/12/05 12:45:41;;;;;;;2.65;1.40;;;;;;;;;;5054485;28;20653;-68
2020/12/05 12:50:36;;;;;;;3.63;1.80;;;;;;;;;;5054651;28;20078;-68
2020/12/05 12:53:01;;;;;;;1.50;1.10;;;;;;;;;;5054269;28;20010;-68
2020/12/05 12:55:26;;;;;;;3.03;1.30;;;;;;;;;;5054386;28;20025;-68
2020/12/05 12:57:53;;;;;;;1.70;1.20;;;;;;;;;;5054384;28;20717;-68
2020/12/05 13:00:18;;;;;;;1.85;1.42;;;;;;;;;;5058421;28;20313;-67
2020/12/05 13:02:44;;;;;;;1.48;1.30;;;;;;;;;;5072580;28;20025;-69
2020/12/05 13:05:09;;;;;;;2.37;1.30;;;;;;;;;;5074511;28;20017;-68
2020/12/05 13:07:34;;;;;;;2.22;1.38;;;;;;;;;;5074614;28;20275;-71
2020/12/05 13:10:00;;;;;;;2.23;1.30;;;;;;;;;;5074829;28;20028;-69
2020/12/05 13:12:25;;;;;;;1.83;1.30;;;;;;;;;;5074444;28;20339;-69
2020/12/05 13:14:50;;;;;;;1.75;1.40;;;;;;;;;;5075102;28;20044;-68
2020/12/05 13:17:16;;;;;;;1.87;1.40;;;;;;;;;;5074528;28;20048;-74
2020/12/05 13:19:41;;;;;;;1.70;1.27;;;;;;;;;;5074693;28;20717;-69
2020/12/05 13:22:06;;;;;;;1.97;1.37;;;;;;;;;;5074068;28;20025;-70
2020/12/05 13:24:32;;;;;;;2.95;1.50;;;;;;;;;;5075015;28;20259;-69
2020/12/05 13:26:57;;;;;;;1.38;1.20;;;;;;;;;;5074520;28;20028;-69
2020/12/05 13:29:22;;;;;;;3.03;1.43;;;;;;;;;;5074275;28;20035;-72
2020/12/05 13:31:47;;;;;;;2.22;1.60;;;;;;;;;;5073806;28;20281;-69
2020/12/05 13:34:12;;;;;;;1.80;1.35;;;;;;;;;;5074270;28;20028;-66
2020/12/05 13:36:41;;;;;;;2.07;1.40;;;;;;;;;;5072847;28;20031;-70
2020/12/05 13:39:07;;;;;;;2.05;1.40;;;;;;;;;;5072224;28;20337;-67
2020/12/05 13:41:33;;;;;;;3.42;1.60;;;;;;;;;;5071789;28;20064;-68
2020/12/05 13:44:01;;;;;;;1.52;1.42;;;;;;;;;;5071606;28;20016;-68
2020/12/05 13:46:26;;;;;;;2.55;1.50;;;;;;;;;;5072040;28;20024;-68
2020/12/05 13:48:52;;;;;;;1.48;1.20;;;;;;;;;;5070175;28;20028;-69
2020/12/05 13:51:17;;;;;;;4.00;1.65;;;;;;;;;;5071947;28;20400;-68
2020/12/05 13:53:42;;;;;;;1.77;1.43;;;;;;;;;;5073304;28;20016;-70
2020/12/05 13:56:07;;;;;;;1.93;1.60;;;;;;;;;;5072151;28;20286;-72
2020/12/05 13:58:32;;;;;;;2.90;1.90;;;;;;;;;;5071037;28;20269;-73
2020/12/05 14:00:59;;;;;;;3.60;1.70;;;;;;;;;;5067253;28;20259;-69
2020/12/05 14:03:25;;;;;;;2.90;1.65;;;;;;;;;;5052846;28;20425;-70
2020/12/05 14:05:50;;;;;;;3.50;1.85;;;;;;;;;;5052835;28;20029;-70
2020/12/05 14:08:15;;;;;;;2.83;1.80;;;;;;;;;;5052582;28;20036;-69
2020/12/05 14:10:41;;;;;;;3.15;1.77;;;;;;;;;;5052559;28;20070;-71
2020/12/05 14:13:06;;;;;;;2.83;2.17;;;;;;;;;;5052461;28;20105;-71
2020/12/05 14:15:31;;;;;;;2.85;1.90;;;;;;;;;;5052684;28;20427;-69
2020/12/05 14:17:56;;;;;;;8.17;5.27;;;;;;;;;;5052699;28;20031;-69
2020/12/05 14:20:21;;;;;;;5.53;3.85;;;;;;;;;;5052781;28;20304;-69
2020/12/05 14:22:49;;;;;;;3.70;2.67;;;;;;;;;;5052155;28;20025;-72
2020/12/05 14:25:14;;;;;;;3.00;2.53;;;;;;;;;;5052410;28;20025;-70
2020/12/05 14:27:39;;;;;;;2.97;2.17;;;;;;;;;;5052909;28;20104;-70